sensor_id;sensor_type;location;lat;lon;timestamp;temperature;humidity
21459;DHT22;10891;49.350;19.386;2022-09-13T00:01:17;6.20;99.90
21459;DHT22;10891;49.350;19.386;2022-09-13T00:03:44;6.10;99.90
21459;DHT22;10891;49.350;19.386;2022-09-13T00:06:12;6.10;99.90
21459;DHT22;10891;49.350;19.386;2022-09-13T00:08:41;6.10;99.90
21459;DHT22;10891;49.350;19.386;2022-09-13T00:11:14;6.10;99.90
21459;DHT22;10891;49.350;19.386;2022-09-13T00:13:41;6.10;99.90
21459;DHT22;10891;49.350;19.386;2022-09-13T00:16:10;6.10;99.90
21459;DHT22;10891;49.350;19.386;2022-09-13T00:18:37;6.10;99.90
21459;DHT22;10891;49.350;19.386;2022-09-13T00:21:06;6.10;99.90
21459;DHT22;10891;49.350;19.386;2022-09-13T00:23:33;6.10;99.90
21459;DHT22;10891;49.350;19.386;2022-09-13T00:26:07;6.10;99.90
21459;DHT22;10891;49.350;19.386;2022-09-13T00:28:34;6.10;99.90
21459;DHT22;10891;49.350;19.386;2022-09-13T00:31:02;6.00;99.90
21459;DHT22;10891;49.350;19.386;2022-09-13T00:33:29;6.00;99.90
21459;DHT22;10891;49.350;19.386;2022-09-13T00:35:56;6.10;99.90
21459;DHT22;10891;49.350;19.386;2022-09-13T00:38:23;6.10;99.90
21459;DHT22;10891;49.350;19.386;2022-09-13T00:40:50;6.10;99.90
21459;DHT22;10891;49.350;19.386;2022-09-13T00:43:36;6.10;99.90
21459;DHT22;10891;49.350;19.386;2022-09-13T00:46:05;6.00;99.90
21459;DHT22;10891;49.350;19.386;2022-09-13T00:48:34;6.00;99.90
21459;DHT22;10891;49.350;19.386;2022-09-13T00:51:02;6.00;99.90
21459;DHT22;10891;49.350;19.386;2022-09-13T00:53:33;6.10;99.90
21459;DHT22;10891;49.350;19.386;2022-09-13T00:56:05;6.20;99.90
21459;DHT22;10891;49.350;19.386;2022-09-13T00:58:38;6.20;99.90
21459;DHT22;10891;49.350;19.386;2022-09-13T01:01:09;6.30;99.90
21459;DHT22;10891;49.350;19.386;2022-09-13T01:03:37;6.40;99.90
21459;DHT22;10891;49.350;19.386;2022-09-13T01:06:08;6.40;99.90
21459;DHT22;10891;49.350;19.386;2022-09-13T01:08:37;6.50;99.90
21459;DHT22;10891;49.350;19.386;2022-09-13T01:11:06;6.60;99.90
21459;DHT22;10891;49.350;19.386;2022-09-13T01:13:39;6.60;99.90
21459;DHT22;10891;49.350;19.386;2022-09-13T01:16:07;6.60;99.90
21459;DHT22;10891;49.350;19.386;2022-09-13T01:18:34;6.60;99.90
21459;DHT22;10891;49.350;19.386;2022-09-13T01:21:37;6.60;99.90
21459;DHT22;10891;49.350;19.386;2022-09-13T01:24:29;6.60;99.90
21459;DHT22;10891;49.350;19.386;2022-09-13T01:30:17;6.40;99.90
21459;DHT22;10891;49.350;19.386;2022-09-13T01:33:00;6.30;99.90
21459;DHT22;10891;49.350;19.386;2022-09-13T01:35:40;6.20;99.90
21459;DHT22;10891;49.350;19.386;2022-09-13T01:38:20;6.10;99.90
21459;DHT22;10891;49.350;19.386;2022-09-13T01:41:04;6.00;99.90
21459;DHT22;10891;49.350;19.386;2022-09-13T01:43:41;5.90;99.90
21459;DHT22;10891;49.350;19.386;2022-09-13T01:46:17;5.70;99.90
21459;DHT22;10891;49.350;19.386;2022-09-13T01:48:57;5.70;99.90
21459;DHT22;10891;49.350;19.386;2022-09-13T01:51:29;5.60;99.90
21459;DHT22;10891;49.350;19.386;2022-09-13T01:54:10;5.60;99.90
21459;DHT22;10891;49.350;19.386;2022-09-13T01:56:42;5.60;99.90
21459;DHT22;10891;49.350;19.386;2022-09-13T01:59:15;5.50;99.90
21459;DHT22;10891;49.350;19.386;2022-09-13T02:01:49;5.50;99.90
21459;DHT22;10891;49.350;19.386;2022-09-13T02:04:23;5.50;99.90
21459;DHT22;10891;49.350;19.386;2022-09-13T02:06:55;5.50;99.90
21459;DHT22;10891;49.350;19.386;2022-09-13T02:09:29;5.60;99.90
21459;DHT22;10891;49.350;19.386;2022-09-13T02:12:00;5.50;99.90
21459;DHT22;10891;49.350;19.386;2022-09-13T02:14:34;5.50;99.90
21459;DHT22;10891;49.350;19.386;2022-09-13T02:17:06;5.50;99.90
21459;DHT22;10891;49.350;19.386;2022-09-13T02:19:37;5.50;99.90
21459;DHT22;10891;49.350;19.386;2022-09-13T02:22:07;5.40;99.90
21459;DHT22;10891;49.350;19.386;2022-09-13T02:24:39;5.40;99.90
21459;DHT22;10891;49.350;19.386;2022-09-13T02:27:10;5.40;99.90
21459;DHT22;10891;49.350;19.386;2022-09-13T02:29:40;5.40;99.90
21459;DHT22;10891;49.350;19.386;2022-09-13T02:32:12;5.40;99.90
21459;DHT22;10891;49.350;19.386;2022-09-13T02:34:42;5.40;99.90
21459;DHT22;10891;49.350;19.386;2022-09-13T02:37:10;5.40;99.90
21459;DHT22;10891;49.350;19.386;2022-09-13T02:39:42;5.40;99.90
21459;DHT22;10891;49.350;19.386;2022-09-13T02:42:16;5.40;99.90
21459;DHT22;10891;49.350;19.386;2022-09-13T02:44:45;5.40;99.90
21459;DHT22;10891;49.350;19.386;2022-09-13T02:47:26;5.40;99.90
21459;DHT22;10891;49.350;19.386;2022-09-13T02:50:06;5.30;99.90
21459;DHT22;10891;49.350;19.386;2022-09-13T02:52:43;5.30;99.90
21459;DHT22;10891;49.350;19.386;2022-09-13T02:55:16;5.20;99.90
21459;DHT22;10891;49.350;19.386;2022-09-13T02:57:54;5.20;99.90
21459;DHT22;10891;49.350;19.386;2022-09-13T03:00:24;5.20;99.90
21459;DHT22;10891;49.350;19.386;2022-09-13T03:02:54;5.10;99.90
21459;DHT22;10891;49.350;19.386;2022-09-13T03:05:22;5.10;99.90
21459;DHT22;10891;49.350;19.386;2022-09-13T03:07:49;5.00;99.90
21459;DHT22;10891;49.350;19.386;2022-09-13T03:10:17;5.10;99.90
21459;DHT22;10891;49.350;19.386;2022-09-13T03:13:08;4.90;99.90
21459;DHT22;10891;49.350;19.386;2022-09-13T03:15:47;4.90;99.90
21459;DHT22;10891;49.350;19.386;2022-09-13T03:18:36;4.90;99.90
21459;DHT22;10891;49.350;19.386;2022-09-13T03:21:11;4.70;99.90
21459;DHT22;10891;49.350;19.386;2022-09-13T03:23:51;4.70;99.90
21459;DHT22;10891;49.350;19.386;2022-09-13T03:26:25;4.70;99.90
21459;DHT22;10891;49.350;19.386;2022-09-13T03:29:05;4.60;99.90
21459;DHT22;10891;49.350;19.386;2022-09-13T03:31:37;4.50;99.90
21459;DHT22;10891;49.350;19.386;2022-09-13T03:34:10;4.60;99.90
21459;DHT22;10891;49.350;19.386;2022-09-13T03:36:42;4.60;99.90
21459;DHT22;10891;49.350;19.386;2022-09-13T03:39:16;4.60;99.90
21459;DHT22;10891;49.350;19.386;2022-09-13T03:41:48;4.60;99.90
21459;DHT22;10891;49.350;19.386;2022-09-13T03:44:19;4.60;99.90
21459;DHT22;10891;49.350;19.386;2022-09-13T03:46:50;4.60;99.90
21459;DHT22;10891;49.350;19.386;2022-09-13T03:49:21;4.60;99.90
21459;DHT22;10891;49.350;19.386;2022-09-13T03:51:49;4.80;99.90
21459;DHT22;10891;49.350;19.386;2022-09-13T03:54:21;4.90;99.90
21459;DHT22;10891;49.350;19.386;2022-09-13T03:57:07;5.00;99.90
21459;DHT22;10891;49.350;19.386;2022-09-13T03:59:35;5.00;99.90
21459;DHT22;10891;49.350;19.386;2022-09-13T04:02:03;5.00;99.90
21459;DHT22;10891;49.350;19.386;2022-09-13T04:04:31;5.10;99.90
21459;DHT22;10891;49.350;19.386;2022-09-13T04:06:58;5.10;99.90
21459;DHT22;10891;49.350;19.386;2022-09-13T04:09:29;5.00;99.90
21459;DHT22;10891;49.350;19.386;2022-09-13T04:11:56;5.00;99.90
21459;DHT22;10891;49.350;19.386;2022-09-13T04:14:23;5.00;99.90
21459;DHT22;10891;49.350;19.386;2022-09-13T04:16:51;5.00;99.90
21459;DHT22;10891;49.350;19.386;2022-09-13T04:19:19;5.20;99.90
21459;DHT22;10891;49.350;19.386;2022-09-13T04:21:48;5.30;99.90
21459;DHT22;10891;49.350;19.386;2022-09-13T04:24:16;5.40;99.90
21459;DHT22;10891;49.350;19.386;2022-09-13T04:26:43;5.50;99.90
21459;DHT22;10891;49.350;19.386;2022-09-13T04:29:10;5.50;99.90
21459;DHT22;10891;49.350;19.386;2022-09-13T04:31:37;5.60;99.90
21459;DHT22;10891;49.350;19.386;2022-09-13T04:34:04;5.60;99.90
21459;DHT22;10891;49.350;19.386;2022-09-13T04:36:32;5.60;99.90
21459;DHT22;10891;49.350;19.386;2022-09-13T04:39:00;5.70;99.90
21459;DHT22;10891;49.350;19.386;2022-09-13T04:41:28;5.70;99.90
21459;DHT22;10891;49.350;19.386;2022-09-13T04:43:56;5.80;99.90
21459;DHT22;10891;49.350;19.386;2022-09-13T04:46:23;5.80;99.90
21459;DHT22;10891;49.350;19.386;2022-09-13T04:48:51;5.70;99.90
21459;DHT22;10891;49.350;19.386;2022-09-13T04:51:18;5.50;99.90
21459;DHT22;10891;49.350;19.386;2022-09-13T04:53:50;5.60;99.90
21459;DHT22;10891;49.350;19.386;2022-09-13T04:56:18;5.60;99.90
21459;DHT22;10891;49.350;19.386;2022-09-13T04:58:45;5.70;99.90
21459;DHT22;10891;49.350;19.386;2022-09-13T05:01:12;5.90;99.90
21459;DHT22;10891;49.350;19.386;2022-09-13T05:03:39;5.90;99.90
21459;DHT22;10891;49.350;19.386;2022-09-13T05:06:08;6.00;99.90
21459;DHT22;10891;49.350;19.386;2022-09-13T05:08:36;6.20;99.90
21459;DHT22;10891;49.350;19.386;2022-09-13T05:11:03;6.20;99.90
21459;DHT22;10891;49.350;19.386;2022-09-13T05:13:33;6.40;99.90
21459;DHT22;10891;49.350;19.386;2022-09-13T05:16:02;6.50;99.90
21459;DHT22;10891;49.350;19.386;2022-09-13T05:18:32;6.80;99.90
21459;DHT22;10891;49.350;19.386;2022-09-13T05:21:01;6.80;99.90
21459;DHT22;10891;49.350;19.386;2022-09-13T05:23:30;6.90;99.90
21459;DHT22;10891;49.350;19.386;2022-09-13T05:25:59;6.90;99.90
21459;DHT22;10891;49.350;19.386;2022-09-13T05:28:27;7.00;99.90
21459;DHT22;10891;49.350;19.386;2022-09-13T05:30:57;7.10;99.90
21459;DHT22;10891;49.350;19.386;2022-09-13T05:33:25;7.30;99.90
21459;DHT22;10891;49.350;19.386;2022-09-13T05:35:52;7.40;99.90
21459;DHT22;10891;49.350;19.386;2022-09-13T05:38:19;7.60;99.90
21459;DHT22;10891;49.350;19.386;2022-09-13T05:40:46;7.70;99.90
21459;DHT22;10891;49.350;19.386;2022-09-13T05:43:14;7.80;99.90
21459;DHT22;10891;49.350;19.386;2022-09-13T05:45:41;7.90;99.90
21459;DHT22;10891;49.350;19.386;2022-09-13T05:48:09;8.00;99.90
21459;DHT22;10891;49.350;19.386;2022-09-13T05:50:37;8.30;99.90
21459;DHT22;10891;49.350;19.386;2022-09-13T05:53:04;8.50;99.90
21459;DHT22;10891;49.350;19.386;2022-09-13T05:55:31;8.60;99.90
21459;DHT22;10891;49.350;19.386;2022-09-13T05:57:59;8.80;99.90
21459;DHT22;10891;49.350;19.386;2022-09-13T06:00:26;9.10;99.90
21459;DHT22;10891;49.350;19.386;2022-09-13T06:02:55;9.10;99.90
21459;DHT22;10891;49.350;19.386;2022-09-13T06:05:23;9.40;99.90
21459;DHT22;10891;49.350;19.386;2022-09-13T06:07:50;9.80;99.90
21459;DHT22;10891;49.350;19.386;2022-09-13T06:10:17;9.80;99.90
21459;DHT22;10891;49.350;19.386;2022-09-13T06:12:45;9.90;99.90
21459;DHT22;10891;49.350;19.386;2022-09-13T06:15:12;10.20;99.90
21459;DHT22;10891;49.350;19.386;2022-09-13T06:17:39;10.30;99.90
21459;DHT22;10891;49.350;19.386;2022-09-13T06:20:06;9.70;99.90
21459;DHT22;10891;49.350;19.386;2022-09-13T06:22:35;9.60;99.90
21459;DHT22;10891;49.350;19.386;2022-09-13T06:25:02;9.60;99.90
21459;DHT22;10891;49.350;19.386;2022-09-13T06:27:29;9.60;99.90
21459;DHT22;10891;49.350;19.386;2022-09-13T06:29:56;9.80;99.90
21459;DHT22;10891;49.350;19.386;2022-09-13T06:32:23;9.80;99.90
21459;DHT22;10891;49.350;19.386;2022-09-13T06:34:50;10.10;99.90
21459;DHT22;10891;49.350;19.386;2022-09-13T06:37:17;10.20;99.90
21459;DHT22;10891;49.350;19.386;2022-09-13T06:39:46;10.50;99.90
21459;DHT22;10891;49.350;19.386;2022-09-13T06:42:12;10.60;99.90
21459;DHT22;10891;49.350;19.386;2022-09-13T06:44:39;10.60;99.90
21459;DHT22;10891;49.350;19.386;2022-09-13T06:47:06;10.50;99.90
21459;DHT22;10891;49.350;19.386;2022-09-13T06:49:33;10.80;99.90
21459;DHT22;10891;49.350;19.386;2022-09-13T06:52:00;11.00;99.90
21459;DHT22;10891;49.350;19.386;2022-09-13T06:54:27;11.40;99.90
21459;DHT22;10891;49.350;19.386;2022-09-13T06:56:55;11.60;99.90
21459;DHT22;10891;49.350;19.386;2022-09-13T06:59:22;11.80;99.90
21459;DHT22;10891;49.350;19.386;2022-09-13T07:01:49;12.10;99.90
21459;DHT22;10891;49.350;19.386;2022-09-13T07:04:17;12.30;99.90
21459;DHT22;10891;49.350;19.386;2022-09-13T07:06:45;12.50;99.90
21459;DHT22;10891;49.350;19.386;2022-09-13T07:09:14;12.70;99.90
21459;DHT22;10891;49.350;19.386;2022-09-13T07:11:43;12.80;99.90
21459;DHT22;10891;49.350;19.386;2022-09-13T07:14:15;12.90;99.90
21459;DHT22;10891;49.350;19.386;2022-09-13T07:16:42;12.90;99.90
21459;DHT22;10891;49.350;19.386;2022-09-13T07:19:13;12.80;99.90
21459;DHT22;10891;49.350;19.386;2022-09-13T07:21:41;12.70;99.90
21459;DHT22;10891;49.350;19.386;2022-09-13T07:24:08;12.60;99.90
21459;DHT22;10891;49.350;19.386;2022-09-13T07:26:35;12.60;99.90
21459;DHT22;10891;49.350;19.386;2022-09-13T07:29:07;12.70;99.90
21459;DHT22;10891;49.350;19.386;2022-09-13T07:31:38;12.80;99.90
21459;DHT22;10891;49.350;19.386;2022-09-13T07:34:07;12.90;99.90
21459;DHT22;10891;49.350;19.386;2022-09-13T07:36:35;13.10;99.90
21459;DHT22;10891;49.350;19.386;2022-09-13T07:39:03;13.10;99.90
21459;DHT22;10891;49.350;19.386;2022-09-13T07:41:31;13.30;99.90
21459;DHT22;10891;49.350;19.386;2022-09-13T07:43:59;13.40;99.90
21459;DHT22;10891;49.350;19.386;2022-09-13T07:46:28;13.70;99.90
21459;DHT22;10891;49.350;19.386;2022-09-13T07:48:59;13.90;99.90
21459;DHT22;10891;49.350;19.386;2022-09-13T07:51:27;13.90;99.90
21459;DHT22;10891;49.350;19.386;2022-09-13T07:53:57;14.10;99.90
21459;DHT22;10891;49.350;19.386;2022-09-13T07:56:25;14.30;99.90
21459;DHT22;10891;49.350;19.386;2022-09-13T07:58:54;14.60;99.90
21459;DHT22;10891;49.350;19.386;2022-09-13T08:01:22;14.80;99.90
21459;DHT22;10891;49.350;19.386;2022-09-13T08:03:50;14.80;99.90
21459;DHT22;10891;49.350;19.386;2022-09-13T08:06:19;14.90;99.90
21459;DHT22;10891;49.350;19.386;2022-09-13T08:08:46;14.90;99.90
21459;DHT22;10891;49.350;19.386;2022-09-13T08:11:16;14.90;99.90
21459;DHT22;10891;49.350;19.386;2022-09-13T08:13:44;15.20;99.90
21459;DHT22;10891;49.350;19.386;2022-09-13T08:16:12;15.20;99.90
21459;DHT22;10891;49.350;19.386;2022-09-13T08:18:42;15.20;99.90
21459;DHT22;10891;49.350;19.386;2022-09-13T08:21:11;15.30;99.90
21459;DHT22;10891;49.350;19.386;2022-09-13T08:23:40;15.60;99.90
21459;DHT22;10891;49.350;19.386;2022-09-13T08:26:07;15.90;99.90
21459;DHT22;10891;49.350;19.386;2022-09-13T08:28:39;16.00;99.90
21459;DHT22;10891;49.350;19.386;2022-09-13T08:31:07;16.10;99.90
21459;DHT22;10891;49.350;19.386;2022-09-13T08:33:38;16.20;99.90
21459;DHT22;10891;49.350;19.386;2022-09-13T08:36:05;16.20;99.90
21459;DHT22;10891;49.350;19.386;2022-09-13T08:38:32;16.30;99.90
21459;DHT22;10891;49.350;19.386;2022-09-13T08:41:02;16.30;99.90
21459;DHT22;10891;49.350;19.386;2022-09-13T08:43:41;16.30;99.90
21459;DHT22;10891;49.350;19.386;2022-09-13T08:46:13;16.30;99.90
21459;DHT22;10891;49.350;19.386;2022-09-13T08:48:50;16.40;99.90
21459;DHT22;10891;49.350;19.386;2022-09-13T08:51:27;16.50;99.90
21459;DHT22;10891;49.350;19.386;2022-09-13T08:53:57;16.60;99.90
21459;DHT22;10891;49.350;19.386;2022-09-13T08:56:31;16.70;99.90
21459;DHT22;10891;49.350;19.386;2022-09-13T08:59:18;16.80;99.90
21459;DHT22;10891;49.350;19.386;2022-09-13T09:01:55;16.80;99.90
21459;DHT22;10891;49.350;19.386;2022-09-13T09:04:35;16.90;99.90
21459;DHT22;10891;49.350;19.386;2022-09-13T09:07:08;17.10;99.90
21459;DHT22;10891;49.350;19.386;2022-09-13T09:09:41;17.20;99.90
21459;DHT22;10891;49.350;19.386;2022-09-13T09:12:16;17.30;99.90
21459;DHT22;10891;49.350;19.386;2022-09-13T09:14:51;17.50;99.90
21459;DHT22;10891;49.350;19.386;2022-09-13T09:17:23;17.60;99.90
21459;DHT22;10891;49.350;19.386;2022-09-13T09:19:53;17.70;99.90
21459;DHT22;10891;49.350;19.386;2022-09-13T09:22:23;17.90;99.90
21459;DHT22;10891;49.350;19.386;2022-09-13T09:24:55;18.30;99.90
21459;DHT22;10891;49.350;19.386;2022-09-13T09:27:24;18.50;99.90
21459;DHT22;10891;49.350;19.386;2022-09-13T09:29:54;18.70;99.90
21459;DHT22;10891;49.350;19.386;2022-09-13T09:32:38;18.90;99.90
21459;DHT22;10891;49.350;19.386;2022-09-13T09:35:15;18.90;99.90
21459;DHT22;10891;49.350;19.386;2022-09-13T09:37:51;19.10;99.90
21459;DHT22;10891;49.350;19.386;2022-09-13T09:40:24;19.20;99.10
21459;DHT22;10891;49.350;19.386;2022-09-13T09:42:52;19.40;99.20
21459;DHT22;10891;49.350;19.386;2022-09-13T09:45:25;19.60;98.90
21459;DHT22;10891;49.350;19.386;2022-09-13T09:47:54;19.80;98.30
21459;DHT22;10891;49.350;19.386;2022-09-13T09:50:24;19.80;98.30
21459;DHT22;10891;49.350;19.386;2022-09-13T09:52:57;19.80;97.70
21459;DHT22;10891;49.350;19.386;2022-09-13T09:55:27;19.80;97.30
21459;DHT22;10891;49.350;19.386;2022-09-13T09:57:58;19.80;97.50
21459;DHT22;10891;49.350;19.386;2022-09-13T10:00:27;19.80;97.50
21459;DHT22;10891;49.350;19.386;2022-09-13T10:02:57;19.80;97.80
21459;DHT22;10891;49.350;19.386;2022-09-13T10:05:26;20.00;98.10
21459;DHT22;10891;49.350;19.386;2022-09-13T10:07:58;20.40;97.40
21459;DHT22;10891;49.350;19.386;2022-09-13T10:10:33;20.50;97.20
21459;DHT22;10891;49.350;19.386;2022-09-13T10:13:05;20.30;97.00
21459;DHT22;10891;49.350;19.386;2022-09-13T10:15:33;20.10;96.90
21459;DHT22;10891;49.350;19.386;2022-09-13T10:18:11;20.00;97.40
21459;DHT22;10891;49.350;19.386;2022-09-13T10:20:40;20.00;97.10
21459;DHT22;10891;49.350;19.386;2022-09-13T10:23:17;20.10;97.10
21459;DHT22;10891;49.350;19.386;2022-09-13T10:25:55;20.10;97.00
21459;DHT22;10891;49.350;19.386;2022-09-13T10:28:25;20.10;97.20
21459;DHT22;10891;49.350;19.386;2022-09-13T10:30:54;20.30;97.10
21459;DHT22;10891;49.350;19.386;2022-09-13T10:33:26;20.20;95.50
21459;DHT22;10891;49.350;19.386;2022-09-13T10:35:55;20.00;96.00
21459;DHT22;10891;49.350;19.386;2022-09-13T10:38:27;19.90;95.70
21459;DHT22;10891;49.350;19.386;2022-09-13T10:40:55;20.00;96.00
21459;DHT22;10891;49.350;19.386;2022-09-13T10:43:26;20.20;96.70
21459;DHT22;10891;49.350;19.386;2022-09-13T10:45:54;20.30;96.40
21459;DHT22;10891;49.350;19.386;2022-09-13T10:48:22;20.20;97.00
21459;DHT22;10891;49.350;19.386;2022-09-13T10:51:01;20.30;96.40
21459;DHT22;10891;49.350;19.386;2022-09-13T10:53:34;20.20;95.50
21459;DHT22;10891;49.350;19.386;2022-09-13T10:56:02;19.90;95.30
21459;DHT22;10891;49.350;19.386;2022-09-13T10:58:31;19.80;95.80
21459;DHT22;10891;49.350;19.386;2022-09-13T11:01:14;19.90;95.10
21459;DHT22;10891;49.350;19.386;2022-09-13T11:06:41;20.20;95.40
21459;DHT22;10891;49.350;19.386;2022-09-13T11:09:14;20.00;95.40
21459;DHT22;10891;49.350;19.386;2022-09-13T11:11:48;20.00;94.70
21459;DHT22;10891;49.350;19.386;2022-09-13T11:14:40;19.70;95.10
21459;DHT22;10891;49.350;19.386;2022-09-13T11:17:18;19.40;95.50
21459;DHT22;10891;49.350;19.386;2022-09-13T11:19:55;19.20;94.60
21459;DHT22;10891;49.350;19.386;2022-09-13T11:25:47;18.90;93.70
21459;DHT22;10891;49.350;19.386;2022-09-13T11:28:24;18.90;93.20
21459;DHT22;10891;49.350;19.386;2022-09-13T11:31:10;18.90;93.80
21459;DHT22;10891;49.350;19.386;2022-09-13T11:33:50;19.30;93.80
21459;DHT22;10891;49.350;19.386;2022-09-13T11:36:33;19.10;93.00
21459;DHT22;10891;49.350;19.386;2022-09-13T11:39:13;19.30;93.20
21459;DHT22;10891;49.350;19.386;2022-09-13T11:41:48;19.40;93.50
21459;DHT22;10891;49.350;19.386;2022-09-13T11:47:24;19.50;91.70
21459;DHT22;10891;49.350;19.386;2022-09-13T11:50:22;19.20;92.90
21459;DHT22;10891;49.350;19.386;2022-09-13T11:53:09;18.70;93.10
21459;DHT22;10891;49.350;19.386;2022-09-13T11:55:41;18.30;93.60
21459;DHT22;10891;49.350;19.386;2022-09-13T11:58:12;18.40;94.30
21459;DHT22;10891;49.350;19.386;2022-09-13T12:00:42;18.50;93.50
21459;DHT22;10891;49.350;19.386;2022-09-13T12:03:16;18.40;93.40
21459;DHT22;10891;49.350;19.386;2022-09-13T12:05:49;18.10;94.00
21459;DHT22;10891;49.350;19.386;2022-09-13T12:08:19;18.00;93.80
21459;DHT22;10891;49.350;19.386;2022-09-13T12:10:50;17.90;94.10
21459;DHT22;10891;49.350;19.386;2022-09-13T12:13:21;17.90;94.70
21459;DHT22;10891;49.350;19.386;2022-09-13T12:15:52;18.20;96.10
21459;DHT22;10891;49.350;19.386;2022-09-13T12:18:24;18.50;95.40
21459;DHT22;10891;49.350;19.386;2022-09-13T12:20:56;19.10;93.20
21459;DHT22;10891;49.350;19.386;2022-09-13T12:23:29;19.50;92.90
21459;DHT22;10891;49.350;19.386;2022-09-13T12:26:00;20.00;92.50
21459;DHT22;10891;49.350;19.386;2022-09-13T12:28:32;20.40;91.80
21459;DHT22;10891;49.350;19.386;2022-09-13T12:31:04;20.80;91.90
21459;DHT22;10891;49.350;19.386;2022-09-13T12:33:38;20.90;91.50
21459;DHT22;10891;49.350;19.386;2022-09-13T12:36:27;20.70;91.50
21459;DHT22;10891;49.350;19.386;2022-09-13T12:39:29;20.20;91.70
21459;DHT22;10891;49.350;19.386;2022-09-13T12:42:27;20.00;93.20
21459;DHT22;10891;49.350;19.386;2022-09-13T12:45:10;20.30;93.60
21459;DHT22;10891;49.350;19.386;2022-09-13T12:48:03;20.70;93.70
21459;DHT22;10891;49.350;19.386;2022-09-13T12:50:51;21.10;93.60
21459;DHT22;10891;49.350;19.386;2022-09-13T12:56:39;21.70;91.70
21459;DHT22;10891;49.350;19.386;2022-09-13T13:02:02;21.00;92.20
21459;DHT22;10891;49.350;19.386;2022-09-13T13:04:49;20.60;93.20
21459;DHT22;10891;49.350;19.386;2022-09-13T13:07:22;20.50;93.20
21459;DHT22;10891;49.350;19.386;2022-09-13T13:09:50;20.60;93.40
21459;DHT22;10891;49.350;19.386;2022-09-13T13:12:27;20.80;93.40
21459;DHT22;10891;49.350;19.386;2022-09-13T13:14:55;21.10;93.60
21459;DHT22;10891;49.350;19.386;2022-09-13T13:17:43;21.50;92.80
21459;DHT22;10891;49.350;19.386;2022-09-13T13:23:24;21.60;92.50
21459;DHT22;10891;49.350;19.386;2022-09-13T13:29:04;21.40;92.80
21459;DHT22;10891;49.350;19.386;2022-09-13T13:31:40;21.40;93.30
21459;DHT22;10891;49.350;19.386;2022-09-13T13:37:27;21.10;93.30
21459;DHT22;10891;49.350;19.386;2022-09-13T13:40:22;21.20;93.40
21459;DHT22;10891;49.350;19.386;2022-09-13T13:42:49;21.20;93.30
21459;DHT22;10891;49.350;19.386;2022-09-13T13:45:22;21.20;93.10
21459;DHT22;10891;49.350;19.386;2022-09-13T13:51:11;20.90;94.40
21459;DHT22;10891;49.350;19.386;2022-09-13T13:53:40;20.70;93.90
21459;DHT22;10891;49.350;19.386;2022-09-13T13:56:19;20.70;94.60
21459;DHT22;10891;49.350;19.386;2022-09-13T13:58:49;20.60;94.80
21459;DHT22;10891;49.350;19.386;2022-09-13T14:01:21;20.60;94.50
21459;DHT22;10891;49.350;19.386;2022-09-13T14:06:57;20.30;95.00
21459;DHT22;10891;49.350;19.386;2022-09-13T14:09:33;20.20;95.10
21459;DHT22;10891;49.350;19.386;2022-09-13T14:12:19;20.10;95.40
21459;DHT22;10891;49.350;19.386;2022-09-13T14:15:01;19.90;95.70
21459;DHT22;10891;49.350;19.386;2022-09-13T14:20:24;19.70;96.10
21459;DHT22;10891;49.350;19.386;2022-09-13T14:23:10;19.40;96.20
21459;DHT22;10891;49.350;19.386;2022-09-13T14:25:37;19.40;96.70
21459;DHT22;10891;49.350;19.386;2022-09-13T14:28:05;19.10;96.70
21459;DHT22;10891;49.350;19.386;2022-09-13T14:30:36;19.00;96.70
21459;DHT22;10891;49.350;19.386;2022-09-13T14:33:04;19.00;96.90
21459;DHT22;10891;49.350;19.386;2022-09-13T14:35:34;19.00;96.90
21459;DHT22;10891;49.350;19.386;2022-09-13T14:38:11;19.20;97.20
21459;DHT22;10891;49.350;19.386;2022-09-13T14:40:38;19.30;97.00
21459;DHT22;10891;49.350;19.386;2022-09-13T14:43:14;19.30;96.80
21459;DHT22;10891;49.350;19.386;2022-09-13T14:45:44;19.20;96.90
21459;DHT22;10891;49.350;19.386;2022-09-13T14:48:16;19.10;97.10
21459;DHT22;10891;49.350;19.386;2022-09-13T14:50:47;18.90;97.50
21459;DHT22;10891;49.350;19.386;2022-09-13T14:53:18;18.90;97.40
21459;DHT22;10891;49.350;19.386;2022-09-13T14:55:50;18.90;97.20
21459;DHT22;10891;49.350;19.386;2022-09-13T14:58:22;18.80;97.30
21459;DHT22;10891;49.350;19.386;2022-09-13T15:00:54;18.60;97.40
21459;DHT22;10891;49.350;19.386;2022-09-13T15:03:22;18.40;97.80
21459;DHT22;10891;49.350;19.386;2022-09-13T15:05:51;18.30;98.10
21459;DHT22;10891;49.350;19.386;2022-09-13T15:08:26;18.20;97.80
21459;DHT22;10891;49.350;19.386;2022-09-13T15:10:56;18.20;98.20
21459;DHT22;10891;49.350;19.386;2022-09-13T15:13:25;18.10;98.10
21459;DHT22;10891;49.350;19.386;2022-09-13T15:15:52;18.20;97.90
21459;DHT22;10891;49.350;19.386;2022-09-13T15:18:24;18.10;97.90
21459;DHT22;10891;49.350;19.386;2022-09-13T15:20:53;18.10;97.90
21459;DHT22;10891;49.350;19.386;2022-09-13T15:23:25;18.00;98.30
21459;DHT22;10891;49.350;19.386;2022-09-13T15:25:55;18.00;98.60
21459;DHT22;10891;49.350;19.386;2022-09-13T15:28:26;18.10;98.60
21459;DHT22;10891;49.350;19.386;2022-09-13T15:30:54;18.00;98.50
21459;DHT22;10891;49.350;19.386;2022-09-13T15:33:25;18.00;98.70
21459;DHT22;10891;49.350;19.386;2022-09-13T15:36:12;18.00;99.50
21459;DHT22;10891;49.350;19.386;2022-09-13T15:38:57;18.00;98.80
21459;DHT22;10891;49.350;19.386;2022-09-13T15:41:28;18.00;98.80
21459;DHT22;10891;49.350;19.386;2022-09-13T15:43:58;17.90;98.90
21459;DHT22;10891;49.350;19.386;2022-09-13T15:46:26;17.90;98.70
21459;DHT22;10891;49.350;19.386;2022-09-13T15:48:55;17.80;99.00
21459;DHT22;10891;49.350;19.386;2022-09-13T15:51:22;17.80;99.20
21459;DHT22;10891;49.350;19.386;2022-09-13T15:53:49;17.70;99.40
21459;DHT22;10891;49.350;19.386;2022-09-13T15:56:18;17.70;99.70
21459;DHT22;10891;49.350;19.386;2022-09-13T15:58:46;17.60;99.80
21459;DHT22;10891;49.350;19.386;2022-09-13T16:01:15;17.50;99.90
21459;DHT22;10891;49.350;19.386;2022-09-13T16:03:42;17.40;99.90
21459;DHT22;10891;49.350;19.386;2022-09-13T16:06:10;17.30;99.90
21459;DHT22;10891;49.350;19.386;2022-09-13T16:08:37;17.20;99.90
21459;DHT22;10891;49.350;19.386;2022-09-13T16:11:05;17.30;99.90
21459;DHT22;10891;49.350;19.386;2022-09-13T16:13:33;17.20;99.90
21459;DHT22;10891;49.350;19.386;2022-09-13T16:16:01;17.20;99.90
21459;DHT22;10891;49.350;19.386;2022-09-13T16:18:31;17.20;99.90
21459;DHT22;10891;49.350;19.386;2022-09-13T16:20:58;17.20;99.90
21459;DHT22;10891;49.350;19.386;2022-09-13T16:23:25;17.20;99.90
21459;DHT22;10891;49.350;19.386;2022-09-13T16:25:56;17.20;99.90
21459;DHT22;10891;49.350;19.386;2022-09-13T16:28:24;17.10;99.90